Maple Lake, MN

4:26 AM CDT on May 25, 2018 (GMT -0500)
Maple Lake Municipal

Weather History for KMGG - March, 2014

Change the Weather History Date:

Thursday, March 27, 2014

  Actual Average (KSTC) Record (KSTC)
Temperature  
Mean Temperature 36 °F -  
Max Temperature 41 °F 44 °F 76 °F (1946)
Min Temperature 32 °F 23 °F -2 °F (1923)
Degree Days  
Heating Degree Days 28    
Moisture  
Dew Point 35 °F    
Average Humidity 95    
Maximum Humidity 100    
Minimum Humidity 66    
Precipitation  
Precipitation 0.33 in - - ()
Sea Level Pressure  
Sea Level Pressure 29.54 in    
Wind  
Wind Speed 8 mph (East)    
Max Wind Speed 17 mph    
Max Gust Speed 24 mph    
Visibility 5 miles    
Events Rain , Snow    
Averages and records for this station are not official NWS values.
T = Trace of Precipitation, MM = Missing Value Source: NWS Daily Summary

Daily Weather History Graph

Daily Weather History Graph

Search for Another Location

Airport or City:

Astronomy

Mar. 27, 2014 Rise Set
Actual Time 7:05 AM CDT 7:37 PM CDT
Civil Twilight 6:36 AM CDT 8:07 PM CDT
Nautical Twilight 6:01 AM CDT 8:42 PM CDT
Astronomical Twilight 5:25 AM CDT 9:18 PM CDT
Moon 5:06 AM CDT (3/27) 4:17 PM CDT (3/27)
Length of Visible Light 13h 31m
Length of Day
12h 31m
Waning Crescent, 13% of the Moon is Illuminated
Mar 27
Waning Crescent
Mar 30
New
Apr 7
First Quarter
Apr 15
Full
Apr 22
Last Quarter

Hourly Weather History & Observations

Time (CDT) Temp. Windchill Dew Point Humidity Pressure Visibility Wind Dir Wind Speed Gust Speed Precip Events Conditions
12:17 AM 40.1 °F 33.6 °F 29.7 °F 66% 29.52 in 10.0 mi SE 10.4 mph - N/A   Overcast
12:37 AM 40.3 °F 33.0 °F 30.2 °F 67% 29.51 in 10.0 mi SSE 12.7 mph 18.4 mph N/A   Overcast
12:57 AM 40.3 °F 33.4 °F 30.9 °F 69% 29.51 in 10.0 mi SSE 11.5 mph 19.6 mph N/A   Overcast
1:17 AM 40.3 °F 33.9 °F 31.8 °F 72% 29.52 in 10.0 mi SSE 10.4 mph - N/A   Overcast
1:37 AM 40.3 °F 36.3 °F 32.0 °F 72% 29.51 in 10.0 mi SSE 5.8 mph - N/A   Overcast
1:57 AM 40.3 °F 33.9 °F 33.1 °F 75% 29.51 in 10.0 mi SSE 10.4 mph 16.1 mph N/A   Overcast
2:17 AM 41.0 °F 35.8 °F 35.6 °F 81% 29.52 in 10.0 mi SSE 8.1 mph - N/A   Overcast
2:37 AM 41.2 °F 36.6 °F 37.8 °F 88% 29.52 in 7.0 mi SSE 6.9 mph - N/A   Overcast
2:57 AM 41.4 °F 36.8 °F 39.4 °F 93% 29.52 in 5.0 mi SSE 6.9 mph - N/A   Overcast
3:17 AM 39.7 °F 36.5 °F 38.1 °F 94% 29.52 in 3.0 mi SE 4.6 mph - N/A   Overcast
3:37 AM 39.2 °F 35.0 °F 38.3 °F 97% 29.52 in 2.0 mi SSE 5.8 mph - N/A   Overcast
3:57 AM 39.7 °F 35.6 °F 39.2 °F 98% 29.51 in 2.0 mi SSE 5.8 mph - N/A   Overcast
4:17 AM 40.3 °F 35.5 °F 39.7 °F 98% 29.50 in 2.5 mi South 6.9 mph - N/A   Light Drizzle
4:37 AM 40.1 °F 36.1 °F 39.4 °F 97% 29.50 in 2.5 mi SSE 5.8 mph - N/A   Light Drizzle
4:57 AM 39.9 °F 35.1 °F 39.2 °F 97% 29.49 in 2.5 mi SSE 6.9 mph - N/A   Light Drizzle
5:17 AM 39.7 °F 34.3 °F 39.2 °F 98% 29.49 in 2.5 mi South 8.1 mph - N/A   Light Drizzle
5:37 AM 39.6 °F 34.7 °F 39.2 °F 99% 29.49 in 2.5 mi South 6.9 mph - 0.01 in   Light Drizzle
5:57 AM 39.4 °F 34.5 °F 39.2 °F 99% 29.48 in 2.5 mi South 6.9 mph - 0.01 in Rain Light Rain
6:17 AM 39.4 °F 35.2 °F 39.2 °F 99% 29.49 in 3.0 mi South 5.8 mph - N/A   Light Drizzle
6:37 AM 39.2 °F 35.9 °F 38.8 °F 99% 29.49 in 2.5 mi South 4.6 mph - N/A Rain Light Rain
6:57 AM 38.8 °F 35.4 °F 38.5 °F 99% 29.49 in 2.5 mi SSE 4.6 mph - 0.01 in   Light Drizzle
7:17 AM 38.3 °F 33.9 °F 37.9 °F 99% 29.49 in 2.0 mi SSE 5.8 mph - N/A   Light Drizzle
7:37 AM 38.3 °F 34.8 °F 37.9 °F 99% 29.49 in 2.5 mi SSE 4.6 mph - N/A   Overcast
7:57 AM 38.3 °F 34.8 °F 38.3 °F 100% 29.49 in 1.8 mi SSE 4.6 mph - N/A   Overcast
8:17 AM 38.1 °F 34.6 °F 37.9 °F 99% 29.48 in 1.5 mi SSE 4.6 mph - N/A   Overcast
8:37 AM 38.3 °F 35.9 °F 37.9 °F 99% 29.48 in 1.5 mi SSE 3.5 mph - N/A   Overcast
8:57 AM 37.9 °F 34.4 °F 37.8 °F 99% 29.47 in 1.2 mi SE 4.6 mph - N/A   Overcast
9:17 AM 38.3 °F 34.8 °F 37.9 °F 99% 29.48 in 1.2 mi SE 4.6 mph - N/A   Overcast
9:37 AM 37.9 °F 35.5 °F 37.8 °F 99% 29.48 in 1.0 mi SE 3.5 mph - 0.01 in   Light Drizzle
9:57 AM 38.3 °F 34.8 °F 37.9 °F 99% 29.48 in 1.2 mi SE 4.6 mph - 0.01 in   Light Drizzle
10:17 AM 38.1 °F 34.6 °F 37.8 °F 99% 29.48 in 1.2 mi SE 4.6 mph - N/A   Overcast
10:37 AM 38.3 °F 35.9 °F 37.9 °F 99% 29.48 in 1.2 mi SE 3.5 mph - 0.01 in   Overcast
10:57 AM 38.3 °F 35.9 °F 38.3 °F 100% 29.48 in 1.5 mi SE 3.5 mph - 0.01 in   Overcast
11:17 AM 38.3 °F 34.8 °F 38.3 °F 100% 29.47 in 1.5 mi SE 4.6 mph - N/A   Overcast
11:37 AM 38.5 °F 36.1 °F 38.3 °F 99% 29.47 in 1.5 mi ESE 3.5 mph - N/A   Overcast
11:57 AM 38.8 °F 35.4 °F 38.7 °F 99% 29.47 in 1.5 mi ESE 4.6 mph - 0.01 in   Overcast
12:17 PM 38.8 °F - 38.7 °F 99% 29.47 in 1.2 mi Calm Calm - N/A   Overcast
12:37 PM 38.7 °F - 38.5 °F 99% 29.48 in 1.0 mi Calm Calm - N/A   Overcast
12:57 PM 38.8 °F 36.5 °F 38.7 °F 99% 29.47 in 1.2 mi NE 3.5 mph - 0.01 in   Light Drizzle
1:17 PM 39.2 °F 37.0 °F 38.8 °F 99% 29.47 in 1.5 mi ENE 3.5 mph - N/A   Drizzle
1:37 PM 39.2 °F 35.9 °F 38.8 °F 99% 29.47 in 1.8 mi NNE 4.6 mph - 0.01 in Rain Light Rain
1:57 PM 39.2 °F 35.0 °F 38.8 °F 99% 29.48 in 3.0 mi NNE 5.8 mph - 0.03 in Rain Light Rain
2:17 PM 38.8 °F 35.4 °F 38.7 °F 99% 29.48 in 4.0 mi NE 4.6 mph - 0.01 in Rain Rain
2:37 PM 38.3 °F 34.8 °F 38.3 °F 100% 29.48 in 4.0 mi NE 4.6 mph - 0.02 in   Drizzle
2:57 PM 38.3 °F 35.9 °F 37.9 °F 99% 29.49 in 3.0 mi NNE 3.5 mph - 0.03 in Rain Light Rain
3:17 PM 37.6 °F 30.5 °F 37.4 °F 99% 29.49 in 1.8 mi North 10.4 mph - 0.06 in Rain Heavy Rain
3:37 PM 33.8 °F 28.6 °F 33.8 °F 100% 29.49 in 1.0 mi NNE 5.8 mph - 0.13 in Snow Light Snow
3:57 PM 33.8 °F 27.0 °F 33.8 °F 100% 29.50 in 3.0 mi NNE 8.1 mph - 0.16 in Snow Light Snow
4:17 PM 33.4 °F 27.3 °F 33.4 °F 100% 29.51 in 1.0 mi North 6.9 mph - 0.01 in Snow Light Snow
4:37 PM 33.4 °F 26.6 °F 33.4 °F 100% 29.52 in 1.2 mi North 8.1 mph - 0.03 in Snow Light Snow
4:57 PM 33.3 °F 25.1 °F 33.3 °F 100% 29.52 in 1.8 mi North 10.4 mph - 0.04 in Snow Light Snow
5:17 PM 33.1 °F 24.9 °F 33.1 °F 100% 29.53 in 2.0 mi North 10.4 mph 17.3 mph N/A Snow Light Snow
5:37 PM 33.1 °F 23.4 °F 33.1 °F 100% 29.53 in 1.5 mi North 13.8 mph - 0.01 in Snow Light Snow
5:57 PM 33.1 °F 23.4 °F 33.1 °F 100% 29.54 in 2.5 mi North 13.8 mph 18.4 mph 0.01 in Snow Light Snow
6:17 PM 32.9 °F 23.2 °F 32.9 °F 100% 29.55 in 5.0 mi North 13.8 mph - N/A   Overcast
6:37 PM 32.5 °F 21.5 °F 32.2 °F 99% 29.56 in 7.0 mi North 17.3 mph 24.2 mph N/A   Overcast
6:57 PM 32.4 °F 22.5 °F 32.0 °F 99% 29.58 in 10.0 mi North 13.8 mph 19.6 mph N/A   Overcast
7:17 PM 32.2 °F 21.4 °F 31.6 °F 98% 29.60 in 7.0 mi North 16.1 mph 21.9 mph N/A   Overcast
7:37 PM 32.0 °F 20.8 °F 31.1 °F 96% 29.61 in 10.0 mi North 17.3 mph 21.9 mph N/A   Overcast
7:57 PM 32.0 °F 21.6 °F 30.7 °F 95% 29.63 in 10.0 mi North 15.0 mph 21.9 mph N/A   Overcast
8:17 PM 32.0 °F 20.8 °F 30.6 °F 94% 29.64 in 10.0 mi North 17.3 mph 21.9 mph N/A   Overcast
8:37 PM 32.0 °F 22.5 °F 30.6 °F 94% 29.66 in 10.0 mi North 12.7 mph 21.9 mph N/A   Overcast
8:57 PM 32.0 °F 21.6 °F 30.6 °F 94% 29.67 in 10.0 mi North 15.0 mph 20.7 mph N/A   Overcast
9:17 PM 32.0 °F 23.0 °F 30.2 °F 93% 29.68 in 10.0 mi North 11.5 mph 18.4 mph N/A   Overcast
9:37 PM 32.0 °F 22.1 °F 29.8 °F 92% 29.70 in 10.0 mi North 13.8 mph 18.4 mph N/A   Overcast
9:57 PM 32.0 °F 22.1 °F 29.7 °F 91% 29.71 in 10.0 mi North 13.8 mph 19.6 mph N/A   Overcast
10:17 PM 32.0 °F 21.6 °F 29.3 °F 90% 29.72 in 10.0 mi North 15.0 mph 19.6 mph N/A   Overcast
10:37 PM 32.0 °F 23.0 °F 28.9 °F 88% 29.73 in 10.0 mi North 11.5 mph 18.4 mph N/A   Overcast
10:57 PM 32.0 °F 22.5 °F 28.9 °F 88% 29.75 in 10.0 mi North 12.7 mph 16.1 mph N/A   Overcast
11:17 PM 32.0 °F 22.5 °F 28.9 °F 88% 29.76 in 10.0 mi North 12.7 mph 18.4 mph N/A   Overcast
11:37 PM 32.0 °F 22.5 °F 29.1 °F 89% 29.77 in 10.0 mi North 12.7 mph - N/A   Overcast
11:57 PM 32.0 °F 22.5 °F 28.9 °F 88% 29.78 in 10.0 mi NNW 12.7 mph 16.1 mph N/A   Overcast